Time;durP1;ratioP1;P1;durP2;ratioP2;P2;SDS_P1;SDS_P2;PMS_P1;PMS_P2;Temp;Humidity;BMP_temperature;BMP_pressure;BME280_temperature;BME280_humidity;BME280_pressure;Samples;Min_cycle;Max_cycle;Signal;HPM_P1;HPM_P2
2022/04/06 00:00:05;;;;;;;27.40;13.57;;;;;;;8.59;100.00;149621.50;5015963;28;20171;-70
2022/04/06 00:02:30;;;;;;;30.97;14.53;;;;;;;8.57;100.00;149616.34;5016450;28;20032;-70
2022/04/06 00:04:55;;;;;;;29.10;14.13;;;;;;;8.55;100.00;149611.19;5013935;28;20030;-70
2022/04/06 00:07:21;;;;;;;27.40;13.53;;;;;;;8.58;100.00;149618.94;5011190;28;20389;-69
2022/04/06 00:09:46;;;;;;;25.60;13.30;;;;;;;8.61;100.00;149626.72;5011872;28;20029;-70
2022/04/06 00:12:12;;;;;;;27.00;14.83;;;;;;;8.58;100.00;149618.94;5020212;28;20061;-69
2022/04/06 00:14:37;;;;;;;31.00;15.23;;;;;;;8.56;100.00;149612.47;5014690;28;20065;-70
2022/04/06 00:17:05;;;;;;;35.77;17.20;;;;;;;8.50;100.00;149598.28;5014195;28;20083;-70
2022/04/06 00:19:32;;;;;;;32.47;16.23;;;;;;;8.52;100.00;149604.72;5011704;28;20120;-70
2022/04/06 00:21:58;;;;;;;30.70;16.37;;;;;;;8.56;100.00;149613.75;5010405;28;20017;-70
2022/04/06 00:24:24;;;;;;;30.80;14.47;;;;;;;8.59;100.00;149620.22;5009856;28;20445;-70
2022/04/06 00:26:49;;;;;;;34.03;16.30;;;;;;;8.59;100.00;149621.50;5016485;28;20472;-70
2022/04/06 00:29:14;;;;;;;31.00;15.13;;;;;;;8.59;100.00;149621.50;5020076;28;20034;-69
2022/04/06 00:31:40;;;;;;;35.30;16.90;;;;;;;8.61;100.00;149626.72;5016182;28;20176;-69
2022/04/06 00:34:05;;;;;;;35.67;17.40;;;;;;;8.59;100.00;149621.50;5009547;28;20030;-70
2022/04/06 00:36:30;;;;;;;40.67;18.40;;;;;;;8.55;100.00;149611.19;5013263;28;20065;-70
2022/04/06 00:38:56;;;;;;;35.63;17.67;;;;;;;8.56;100.00;149613.75;5018141;28;20036;-70
2022/04/06 00:41:21;;;;;;;30.10;15.97;;;;;;;8.64;100.00;149634.47;5013661;28;20057;-70
2022/04/06 00:44:10;;;;;;;34.93;17.63;;;;;;;8.63;100.00;149631.88;5020048;28;20461;-70
2022/04/06 00:46:36;;;;;;;32.17;16.10;;;;;;;8.71;100.00;149652.53;5008814;28;20165;-69
2022/04/06 00:49:01;;;;;;;27.13;13.30;;;;;;;8.78;100.00;149670.66;5016700;28;20533;-69
2022/04/06 00:51:27;;;;;;;30.13;15.30;;;;;;;8.78;100.00;149670.66;5014034;28;20028;-69
2022/04/06 00:53:52;;;;;;;34.50;19.00;;;;;;;8.69;100.00;149646.09;5011094;28;20474;-69
2022/04/06 00:56:18;;;;;;;30.37;15.00;;;;;;;8.72;100.00;149655.19;5010832;28;20049;-69
2022/04/06 00:58:43;;;;;;;33.97;17.43;;;;;;;8.68;100.00;149644.78;5009084;28;20030;-69
2022/04/06 01:01:09;;;;;;;29.70;13.93;;;;;;;8.69;100.00;149647.38;5013244;28;20108;-68
2022/04/06 01:03:34;;;;;;;38.97;19.10;;;;;;;8.67;100.00;149642.22;5004096;28;20396;-68
2022/04/06 01:05:59;;;;;;;34.80;18.07;;;;;;;8.65;100.00;149637.06;5015767;28;20091;-68
2022/04/06 01:08:25;;;;;;;30.00;14.23;;;;;;;8.73;100.00;149657.75;5006891;28;20038;-68
2022/04/06 01:10:51;;;;;;;21.90;11.70;;;;;;;8.75;100.00;149662.94;5007359;28;20036;-68
2022/04/06 01:13:16;;;;;;;38.27;18.70;;;;;;;8.63;100.00;149631.88;5008067;28;20115;-68
2022/04/06 01:15:42;;;;;;;31.10;15.90;;;;;;;8.63;100.00;149631.88;5012166;28;20382;-68
2022/04/06 01:18:09;;;;;;;34.00;18.83;;;;;;;8.67;100.00;149640.94;5009040;28;20478;-68
2022/04/06 01:20:34;;;;;;;34.83;17.13;;;;;;;8.70;100.00;149648.66;5005177;28;20037;-69
2022/04/06 01:22:59;;;;;;;35.23;15.40;;;;;;;8.69;100.00;149646.09;5010395;28;20723;-68
2022/04/06 01:25:27;;;;;;;37.77;20.20;;;;;;;8.63;100.00;149631.88;5009669;28;20032;-69
2022/04/06 01:27:53;;;;;;;37.43;18.67;;;;;;;8.68;100.00;149643.50;5015268;28;20080;-69
2022/04/06 01:30:18;;;;;;;42.63;19.53;;;;;;;8.68;100.00;149644.78;5001288;28;20026;-68
2022/04/06 01:32:44;;;;;;;36.53;18.33;;;;;;;8.69;100.00;149647.38;5013237;28;20034;-69
2022/04/06 01:35:09;;;;;;;36.33;18.10;;;;;;;8.69;100.00;149647.38;5008278;28;20033;-69
2022/04/06 01:37:35;;;;;;;40.17;20.07;;;;;;;8.71;100.00;149652.53;5010280;28;20259;-69
2022/04/06 01:40:03;;;;;;;38.30;19.57;;;;;;;8.69;100.00;149646.09;5008286;28;20473;-69
2022/04/06 01:42:29;;;;;;;24.57;10.33;;;;;;;8.74;100.00;149660.34;5014979;28;20030;-69
2022/04/06 01:44:54;;;;;;;39.33;19.93;;;;;;;8.73;100.00;149657.75;5001834;28;20363;-69
2022/04/06 01:47:20;;;;;;;41.27;20.50;;;;;;;8.67;100.00;149642.22;5008235;28;20034;-69
2022/04/06 01:52:31;;;;;;;43.93;21.80;;;;;;;8.67;100.00;149640.94;5011894;28;20092;-69
2022/04/06 01:55:11;;;;;;;44.57;21.77;;;;;;;8.63;100.00;149631.88;5003516;28;20042;-69
2022/04/06 01:57:37;;;;;;;36.00;17.00;;;;;;;8.71;100.00;149652.53;5008637;28;20466;-69
2022/04/06 02:00:13;;;;;;;43.93;20.93;;;;;;;8.75;100.00;149661.63;5008716;28;20116;-69
2022/04/06 02:02:38;;;;;;;36.53;19.43;;;;;;;8.80;100.00;149675.84;5008529;28;20073;-69
2022/04/06 02:05:04;;;;;;;35.63;16.77;;;;;;;8.77;100.00;149668.09;5008948;28;20061;-69
2022/04/06 02:07:30;;;;;;;36.53;19.13;;;;;;;8.77;100.00;149668.09;5011695;28;20466;-69
2022/04/06 02:09:58;;;;;;;39.50;20.20;;;;;;;8.79;100.00;149673.25;4997341;28;20115;-69
2022/04/06 02:12:24;;;;;;;39.70;20.73;;;;;;;8.78;100.00;149670.66;5008932;28;20061;-69
2022/04/06 02:14:49;;;;;;;45.37;21.43;;;;;;;8.77;100.00;149666.78;4999801;28;20563;-69
2022/04/06 02:17:15;;;;;;;40.73;19.70;;;;;;;8.80;100.00;149675.84;5010252;28;20081;-69
2022/04/06 02:19:40;;;;;;;47.43;20.43;;;;;;;8.81;100.00;149678.41;5008445;28;20405;-69
2022/04/06 02:22:07;;;;;;;37.67;17.67;;;;;;;8.92;100.00;149704.28;5010683;28;20036;-69
2022/04/06 02:24:33;;;;;;;41.30;20.47;;;;;;;8.90;100.00;149699.13;5008083;28;20425;-69
2022/04/06 02:26:58;;;;;;;40.90;19.87;;;;;;;8.87;100.00;149691.38;5011290;28;20461;-69
2022/04/06 02:29:25;;;;;;;34.80;17.07;;;;;;;8.92;100.00;149704.28;5021921;28;20040;-70
2022/04/06 02:31:50;;;;;;;40.97;19.60;;;;;;;8.89;100.00;149697.84;5015020;28;20030;-69
2022/04/06 02:34:15;;;;;;;37.77;18.13;;;;;;;8.90;100.00;149699.13;5006631;28;20034;-69
2022/04/06 02:36:41;;;;;;;40.07;19.00;;;;;;;8.88;100.00;149693.97;5011669;28;20055;-69
2022/04/06 02:39:07;;;;;;;42.23;21.53;;;;;;;8.95;100.00;149712.03;5012285;28;20033;-69
2022/04/06 02:41:32;;;;;;;30.00;14.60;;;;;;;8.98;100.00;149719.84;5010787;28;20505;-69
2022/04/06 02:43:57;;;;;;;44.17;19.53;;;;;;;8.97;100.00;149717.25;5009692;28;20113;-69
2022/04/06 02:46:23;;;;;;;41.47;18.17;;;;;;;9.00;100.00;149726.28;5033640;28;20036;-69
2022/04/06 02:48:48;;;;;;;46.20;23.10;;;;;;;8.92;100.00;149705.59;5021953;28;20084;-69
2022/04/06 02:51:14;;;;;;;36.83;19.17;;;;;;;9.01;100.00;149727.59;5012893;28;20026;-69
2022/04/06 02:53:39;;;;;;;42.27;21.90;;;;;;;9.00;100.00;149725.00;5004015;28;20038;-69
2022/04/06 02:56:05;;;;;;;40.00;19.83;;;;;;;8.99;100.00;149723.72;5007347;28;20121;-69
2022/04/06 02:58:31;;;;;;;45.30;22.70;;;;;;;8.95;100.00;149712.03;5013593;28;20029;-70
2022/04/06 03:00:56;;;;;;;40.63;19.53;;;;;;;8.99;100.00;149722.41;5016963;28;20397;-70
2022/04/06 03:03:23;;;;;;;41.30;20.43;;;;;;;8.99;100.00;149722.41;5008332;28;20030;-70
2022/04/06 03:05:48;;;;;;;36.63;20.43;;;;;;;8.97;100.00;149717.25;5016937;28;20033;-70
2022/04/06 03:08:13;;;;;;;43.47;22.30;;;;;;;8.94;100.00;149709.47;5010963;28;20042;-70
2022/04/06 03:10:39;;;;;;;41.67;22.50;;;;;;;8.91;100.00;149703.00;5012728;28;20393;-70
2022/04/06 03:13:04;;;;;;;40.07;19.67;;;;;;;8.94;100.00;149710.75;5009232;28;20049;-70
2022/04/06 03:15:30;;;;;;;39.37;19.53;;;;;;;8.95;100.00;149713.34;5011363;28;20529;-70
2022/04/06 03:17:55;;;;;;;40.73;21.70;;;;;;;8.94;100.00;149710.75;5011994;28;20029;-70
2022/04/06 03:20:21;;;;;;;39.83;19.07;;;;;;;8.95;100.00;149712.03;5009934;28;20032;-70
2022/04/06 03:22:46;;;;;;;36.87;18.57;;;;;;;9.00;100.00;149725.00;5017054;28;20113;-70
2022/04/06 03:25:12;;;;;;;42.47;22.50;;;;;;;8.95;100.00;149712.03;5009129;28;20119;-70
2022/04/06 03:27:37;;;;;;;25.73;13.30;;;;;;;9.05;100.00;149737.91;5006982;28;20030;-70
2022/04/06 03:30:05;;;;;;;41.10;20.30;;;;;;;9.01;100.00;149727.59;5000331;28;20044;-70
2022/04/06 03:32:30;;;;;;;34.87;15.77;;;;;;;9.04;100.00;149736.63;5016451;28;20044;-70
2022/04/06 03:34:55;;;;;;;29.20;15.20;;;;;;;8.97;100.00;149718.56;5012212;28;20041;-70
2022/04/06 03:37:21;;;;;;;28.90;13.80;;;;;;;9.06;100.00;149741.78;5014660;28;20057;-70
2022/04/06 03:39:47;;;;;;;39.20;18.93;;;;;;;9.01;100.00;149727.59;5019637;28;20512;-70
2022/04/06 03:42:12;;;;;;;30.23;14.50;;;;;;;9.00;100.00;149725.00;5013155;28;20036;-70
2022/04/06 03:44:37;;;;;;;31.17;14.90;;;;;;;8.92;100.00;149704.28;5023238;28;20037;-70
2022/04/06 03:47:03;;;;;;;34.57;18.97;;;;;;;8.91;100.00;149703.00;5026051;28;20030;-70
2022/04/06 03:49:28;;;;;;;27.70;15.43;;;;;;;8.99;100.00;149722.41;5007377;28;20150;-70
2022/04/06 03:51:54;;;;;;;26.90;13.37;;;;;;;8.97;100.00;149718.56;5014045;28;20030;-70
2022/04/06 03:54:19;;;;;;;26.67;13.80;;;;;;;8.93;100.00;149706.88;5013778;28;20032;-70
2022/04/06 03:56:44;;;;;;;23.13;12.33;;;;;;;8.93;100.00;149706.88;4999906;28;20048;-70
2022/04/06 03:59:10;;;;;;;29.20;14.47;;;;;;;8.95;100.00;149713.34;5011084;28;20117;-70
2022/04/06 04:01:35;;;;;;;26.83;12.03;;;;;;;8.96;100.00;149714.63;5011013;28;20038;-70
2022/04/06 04:04:03;;;;;;;29.10;13.63;;;;;;;8.97;100.00;149717.25;5009634;28;20084;-70
2022/04/06 04:06:28;;;;;;;27.37;12.90;;;;;;;8.98;100.00;149719.84;5011505;28;20088;-70
2022/04/06 04:08:53;;;;;;;30.77;14.03;;;;;;;8.99;100.00;149722.41;5006915;28;20488;-70
2022/04/06 04:11:19;;;;;;;35.03;15.13;;;;;;;8.87;100.00;149691.38;5016110;28;20029;-70
2022/04/06 04:13:44;;;;;;;29.57;14.57;;;;;;;8.85;100.00;149686.22;5015832;28;20025;-70
2022/04/06 04:16:09;;;;;;;26.53;14.53;;;;;;;8.89;100.00;149696.53;5024937;28;20034;-70
2022/04/06 04:18:35;;;;;;;29.77;14.07;;;;;;;8.85;100.00;149686.22;5008243;28;20470;-70
2022/04/06 04:23:44;;;;;;;28.13;11.67;;;;;;;9.00;100.00;149726.28;5005641;28;20036;-70
2022/04/06 04:26:10;;;;;;;28.40;13.50;;;;;;;8.91;100.00;149703.00;5013027;28;20128;-70
2022/04/06 04:28:35;;;;;;;27.33;14.20;;;;;;;8.87;100.00;149691.38;5016335;28;20034;-70
2022/04/06 04:31:01;;;;;;;28.40;13.27;;;;;;;8.90;100.00;149699.13;5018455;28;20022;-70
2022/04/06 04:33:26;;;;;;;30.77;14.43;;;;;;;8.89;100.00;149696.53;5011106;28;20053;-70
2022/04/06 04:35:52;;;;;;;29.57;14.97;;;;;;;8.86;100.00;149688.78;5014287;28;20057;-70
2022/04/06 04:38:18;;;;;;;30.93;13.87;;;;;;;8.86;100.00;149688.78;5011854;28;20113;-70
2022/04/06 04:40:43;;;;;;;28.83;14.60;;;;;;;8.87;100.00;149691.38;5029689;28;20126;-70
2022/04/06 04:43:08;;;;;;;34.03;14.23;;;;;;;8.87;100.00;149691.38;5010366;28;20023;-70
2022/04/06 04:45:34;;;;;;;30.47;13.27;;;;;;;8.90;100.00;149700.41;5013265;28;20026;-70
2022/04/06 04:47:59;;;;;;;26.53;12.90;;;;;;;8.84;100.00;149684.88;5027940;28;20104;-70
2022/04/06 04:50:25;;;;;;;29.17;16.30;;;;;;;8.80;100.00;149675.84;5012947;28;20127;-70
2022/04/06 04:52:50;;;;;;;32.17;14.47;;;;;;;8.73;100.00;149656.47;5011825;28;20036;-70
2022/04/06 04:55:16;;;;;;;32.53;15.63;;;;;;;8.63;100.00;149631.88;5013639;28;20362;-70
2022/04/06 04:57:41;;;;;;;34.10;15.83;;;;;;;8.51;100.00;149600.84;5029517;28;20052;-70
2022/04/06 05:00:09;;;;;;;37.20;16.93;;;;;;;8.46;100.00;149589.19;5012942;28;20403;-70
2022/04/06 05:02:36;;;;;;;34.90;15.33;;;;;;;8.44;100.00;149582.75;5013063;28;20069;-70
2022/04/06 05:05:03;;;;;;;39.90;19.40;;;;;;;8.42;100.00;149577.56;5007147;28;20076;-70
2022/04/06 05:07:28;;;;;;;42.37;20.37;;;;;;;8.38;100.00;149567.25;5009729;28;20037;-70
2022/04/06 05:09:53;;;;;;;39.83;19.30;;;;;;;8.43;100.00;149581.44;5011939;28;20038;-70
2022/04/06 05:12:19;;;;;;;38.07;17.03;;;;;;;8.44;100.00;149584.03;5011578;28;20108;-71
2022/04/06 05:14:44;;;;;;;41.03;19.93;;;;;;;8.54;100.00;149607.31;4995482;28;20475;-70
2022/04/06 05:17:10;;;;;;;30.10;13.80;;;;;;;8.55;100.00;149611.19;5002588;28;20040;-70
2022/04/06 05:19:35;;;;;;;36.87;18.17;;;;;;;8.60;100.00;149622.81;5011447;28;20044;-70
2022/04/06 05:22:01;;;;;;;41.30;19.33;;;;;;;8.60;100.00;149624.13;5011912;28;20076;-70
2022/04/06 05:24:26;;;;;;;39.50;18.13;;;;;;;8.62;100.00;149629.31;5000767;28;20029;-70
2022/04/06 05:26:52;;;;;;;38.13;18.87;;;;;;;8.67;100.00;149640.94;5008223;28;20068;-70
2022/04/06 05:29:17;;;;;;;28.83;15.30;;;;;;;8.71;100.00;149652.53;5006873;28;20041;-70
2022/04/06 05:31:43;;;;;;;35.33;17.83;;;;;;;8.73;100.00;149656.47;5006718;28;20038;-70
2022/04/06 05:34:08;;;;;;;35.33;15.90;;;;;;;8.81;100.00;149677.13;5008137;28;20037;-70
2022/04/06 05:36:33;;;;;;;28.07;15.87;;;;;;;8.86;100.00;149688.78;5008359;28;20474;-70
2022/04/06 05:38:59;;;;;;;36.53;17.10;;;;;;;8.86;100.00;149688.78;5007436;28;20489;-70
2022/04/06 05:41:25;;;;;;;29.67;13.87;;;;;;;8.81;100.00;149678.41;5016228;28;20057;-70
2022/04/06 05:43:51;;;;;;;26.70;12.83;;;;;;;8.93;100.00;149708.16;5009299;28;20030;-71
2022/04/06 05:46:16;;;;;;;31.40;16.90;;;;;;;8.86;100.00;149690.09;5009283;28;20041;-70
2022/04/06 05:48:42;;;;;;;35.20;15.27;;;;;;;8.87;100.00;149692.66;5007150;28;20040;-70
2022/04/06 05:51:07;;;;;;;30.03;16.17;;;;;;;8.88;100.00;149693.97;5011178;28;20112;-70
2022/04/06 05:53:32;;;;;;;31.83;14.27;;;;;;;8.92;100.00;149705.59;5006428;28;20060;-70
2022/04/06 05:55:58;;;;;;;29.63;16.07;;;;;;;8.93;100.00;149706.88;5016532;28;20034;-70
2022/04/06 05:58:23;;;;;;;33.57;17.43;;;;;;;8.97;100.00;149717.25;5011837;28;20509;-70
2022/04/06 06:00:49;;;;;;;31.23;15.43;;;;;;;8.98;100.00;149721.13;5010760;28;20461;-70
2022/04/06 06:03:14;;;;;;;30.97;15.80;;;;;;;9.03;100.00;149734.03;5007613;28;20033;-70
2022/04/06 06:05:39;;;;;;;26.30;14.43;;;;;;;9.07;100.00;149743.09;5017326;28;20057;-70
2022/04/06 06:08:05;;;;;;;23.67;11.60;;;;;;;9.07;100.00;149743.09;5008797;28;20477;-71
2022/04/06 06:10:31;;;;;;;21.37;11.20;;;;;;;9.10;100.00;149750.88;5007758;28;20037;-71
2022/04/06 06:12:58;;;;;;;25.13;13.07;;;;;;;9.14;100.00;149761.22;5005116;28;20030;-71
2022/04/06 06:15:23;;;;;;;19.23;10.50;;;;;;;9.17;100.00;149768.97;5011070;28;20045;-71
2022/04/06 06:17:49;;;;;;;17.57;8.10;;;;;;;9.23;100.00;149784.50;5010864;28;20038;-71
2022/04/06 06:20:14;;;;;;;16.97;8.87;;;;;;;9.20;100.00;149776.72;5015290;28;20099;-71
2022/04/06 06:22:40;;;;;;;19.17;9.73;;;;;;;9.18;100.00;149771.53;5014945;28;20025;-71
2022/04/06 06:25:06;;;;;;;19.40;10.77;;;;;;;9.18;100.00;149771.53;5013671;28;20061;-71
2022/04/06 06:27:42;;;;;;;21.50;10.77;;;;;;;9.23;100.00;149784.50;5014328;28;20033;-71
2022/04/06 06:30:11;;;;;;;21.47;11.00;;;;;;;9.22;100.00;149781.94;4995021;28;20034;-71
2022/04/06 06:32:36;;;;;;;19.70;10.73;;;;;;;9.26;100.00;149790.97;4995318;28;20109;-70
2022/04/06 06:35:01;;;;;;;19.63;10.63;;;;;;;9.30;100.00;149802.59;5012941;28;20140;-70
2022/04/06 06:37:27;;;;;;;15.17;7.97;;;;;;;9.39;100.00;149824.59;5014797;28;20083;-71
2022/04/06 06:39:54;;;;;;;21.50;10.87;;;;;;;9.47;100.00;149844.03;5013782;28;20044;-70
2022/04/06 06:42:20;;;;;;;18.07;9.17;;;;;;;9.49;100.00;149850.50;5014985;28;20539;-71
2022/04/06 06:44:45;;;;;;;11.77;6.03;;;;;;;9.43;100.00;149833.66;5010597;28;20041;-71
2022/04/06 06:47:11;;;;;;;17.67;9.03;;;;;;;9.38;100.00;146773.25;5014524;28;20033;-71
2022/04/06 06:49:38;;;;;;;21.07;10.13;;;;;;;9.44;100.00;146109.00;4998570;28;20161;-71
2022/04/06 06:52:04;;;;;;;17.80;7.73;;;;;;;9.44;100.00;144755.56;4994841;28;20036;-71
2022/04/06 06:54:29;;;;;;;21.27;8.97;;;;;;;9.50;100.00;144094.00;5007369;28;20030;-71
2022/04/06 06:56:54;;;;;;;18.43;7.60;;;;;;;9.54;100.00;141736.69;5014522;28;20033;-71
2022/04/06 06:59:20;;;;;;;12.43;6.20;;;;;;;9.58;100.00;138367.25;5013664;28;20038;-71
2022/04/06 07:01:45;;;;;;;16.97;6.60;;;;;;;9.54;100.00;137006.94;5015054;28;20501;-71
2022/04/06 07:04:10;;;;;;;18.93;6.23;;;;;;;9.56;100.00;136000.09;5013894;28;20116;-71
2022/04/06 07:06:36;;;;;;;15.23;6.10;;;;;;;9.56;100.00;136336.47;4995865;28;20127;-71
2022/04/06 07:09:01;;;;;;;14.50;6.37;;;;;;;9.51;100.00;133962.78;5010636;28;20030;-71
2022/04/06 07:11:27;;;;;;;16.53;6.20;;;;;;;9.60;100.00;133308.97;5013929;28;20450;-71
2022/04/06 07:13:52;;;;;;;12.40;5.67;;;;;;;9.68;100.00;132315.47;5012276;28;20030;-70
2022/04/06 07:16:19;;;;;;;11.53;5.13;;;;;;;9.57;100.00;129256.97;5014278;28;20030;-71
2022/04/06 07:18:44;;;;;;;10.83;5.47;;;;;;;9.54;100.00;130598.03;5005581;28;20121;-71
2022/04/06 07:21:10;;;;;;;9.93;3.83;;;;;;;9.50;100.00;129916.25;4993806;28;20034;-71
2022/04/06 07:23:36;;;;;;;12.57;5.00;;;;;;;9.45;100.00;129231.31;4998780;28;20050;-71
2022/04/06 07:26:02;;;;;;;11.97;4.60;;;;;;;9.44;100.00;130576.59;5009771;28;20037;-70
2022/04/06 07:28:27;;;;;;;13.40;4.83;;;;;;;9.35;100.00;130219.44;4994233;28;20038;-71
2022/04/06 07:30:53;;;;;;;8.37;3.50;;;;;;;9.24;100.00;129522.25;4993937;28;20394;-71
2022/04/06 07:33:18;;;;;;;9.80;4.33;;;;;;;9.24;100.00;131543.28;4997517;28;20026;-71
2022/04/06 07:35:44;;;;;;;9.80;3.83;;;;;;;9.34;100.00;132914.25;5013827;28;20478;-70
2022/04/06 07:38:12;;;;;;;8.63;3.63;;;;;;;9.37;100.00;131572.84;5013376;28;20064;-71
2022/04/06 07:40:37;;;;;;;12.77;4.53;;;;;;;9.42;100.00;130909.03;4994841;28;20072;-71
2022/04/06 07:43:03;;;;;;;13.43;4.30;;;;;;;9.41;100.00;127875.41;5013319;28;20121;-71
2022/04/06 07:45:29;;;;;;;14.03;4.53;;;;;;;9.42;100.00;125857.00;5013533;28;20362;-70
2022/04/06 07:47:55;;;;;;;7.73;3.30;;;;;;;9.52;100.00;121842.53;5013218;28;20037;-71
2022/04/06 07:50:21;;;;;;;10.37;4.70;;;;;;;9.66;100.00;119183.13;5013637;28;20040;-71
2022/04/06 07:52:47;;;;;;;8.93;5.23;;;;;;;9.67;100.00;113478.00;5012442;28;20454;-70
2022/04/06 07:55:13;;;;;;;15.30;5.40;;;;;;;9.69;100.00;110128.97;5013707;28;20029;-70
2022/04/06 07:57:39;;;;;;;10.13;4.90;;;;;;;9.71;100.00;109461.66;5013485;28;20026;-71
2022/04/06 08:00:09;;;;;;;12.83;5.00;;;;;;;9.77;100.00;105119.25;5008577;28;20334;-71
2022/04/06 08:02:35;;;;;;;11.43;4.17;;;;;;;9.81;100.00;100110.25;4999195;28;20116;-71
2022/04/06 08:05:01;;;;;;;14.10;6.00;;;;;;;9.91;100.00;102803.00;4996385;28;20054;-70
2022/04/06 08:07:26;;;;;;;8.90;4.60;;;;;;;9.80;100.00;94430.34;4993736;28;20117;-70
2022/04/06 08:09:51;;;;;;;12.77;4.13;;;;;;;9.80;100.00;95432.38;5012386;28;20470;-70
2022/04/06 08:12:17;;;;;;;12.13;4.13;;;;;;;9.88;100.00;94443.47;5012173;28;20427;-70
2022/04/06 08:14:42;;;;;;;13.33;4.77;;;;;;;10.01;100.00;92128.94;5012748;28;20104;-70
2022/04/06 08:17:08;;;;;;;11.30;4.70;;;;;;;9.91;100.00;87114.44;5013173;28;20374;-70
2022/04/06 08:19:33;;;;;;;12.63;5.30;;;;;;;9.92;100.00;94117.09;5012542;28;20092;-70
2022/04/06 08:21:58;;;;;;;11.87;4.07;;;;;;;9.69;100.00;93412.38;5012636;28;20037;-70
2022/04/06 08:24:27;;;;;;;13.00;4.50;;;;;;;9.63;100.00;95737.94;4998633;28;20542;-70
2022/04/06 08:26:52;;;;;;;10.07;4.10;;;;;;;9.60;100.00;94732.81;5008800;28;20036;-70
2022/04/06 08:29:19;;;;;;;11.23;4.20;;;;;;;9.58;100.00;95062.31;5011948;28;20448;-70
2022/04/06 08:31:44;;;;;;;10.07;4.40;;;;;;;9.53;100.00;96055.00;5012300;28;20432;-70
2022/04/06 08:34:13;;;;;;;13.63;5.20;;;;;;;9.51;100.00;100058.19;5022750;28;20113;-70
2022/04/06 08:36:40;;;;;;;11.00;4.80;;;;;;;9.51;100.00;95718.00;5032108;28;20563;-70
2022/04/06 08:39:06;;;;;;;16.50;5.47;;;;;;;9.56;100.00;102072.00;5013302;28;20041;-70
2022/04/06 08:41:31;;;;;;;8.90;4.20;;;;;;;9.64;100.00;106100.50;5012523;28;20026;-70
2022/04/06 08:43:57;;;;;;;15.07;5.27;;;;;;;9.48;100.00;107410.81;5011788;28;20037;-70
2022/04/06 08:46:23;;;;;;;15.27;4.90;;;;;;;9.45;100.00;109749.22;5012451;28;20029;-70
2022/04/06 08:48:49;;;;;;;9.07;3.47;;;;;;;9.46;100.00;108076.66;5011326;28;20105;-70
2022/04/06 08:51:17;;;;;;;10.63;4.47;;;;;;;9.45;100.00;109078.38;5011596;28;20083;-70
2022/04/06 08:53:43;;;;;;;10.40;5.30;;;;;;;9.51;100.00;110429.72;5011473;28;20116;-70
2022/04/06 08:56:12;;;;;;;11.77;4.40;;;;;;;9.55;100.00;109097.28;5012463;28;20053;-70
2022/04/06 08:58:37;;;;;;;11.80;4.40;;;;;;;9.51;100.00;109424.69;4993864;28;20383;-70
2022/04/06 09:01:03;;;;;;;12.77;5.23;;;;;;;9.55;100.00;111442.78;5011975;28;20033;-70
2022/04/06 09:03:28;;;;;;;10.87;4.73;;;;;;;9.58;100.00;109437.97;5010404;28;20033;-70
2022/04/06 09:06:02;;;;;;;14.57;4.97;;;;;;;9.63;100.00;108442.47;5012316;28;20066;-70
2022/04/06 09:08:45;;;;;;;15.37;5.33;;;;;;;9.65;100.00;109786.28;5011490;28;20034;-70
2022/04/06 09:11:20;;;;;;;9.10;4.13;;;;;;;9.55;100.00;107422.88;5011333;28;20040;-70
2022/04/06 09:13:59;;;;;;;10.40;5.23;;;;;;;9.60;100.00;110446.94;5002491;28;20043;-70
2022/04/06 09:16:31;;;;;;;17.80;6.53;;;;;;;9.59;100.00;109104.88;5010834;28;20374;-70
2022/04/06 09:18:56;;;;;;;13.97;6.03;;;;;;;9.63;100.00;108778.34;5011650;28;20036;-70
2022/04/06 09:21:22;;;;;;;10.93;5.07;;;;;;;9.70;100.00;106781.13;5011720;28;20533;-70
2022/04/06 09:23:48;;;;;;;15.20;6.50;;;;;;;9.68;100.00;103765.44;5010690;28;20037;-70
2022/04/06 09:26:16;;;;;;;12.00;5.93;;;;;;;9.75;100.00;106790.34;5011679;28;20454;-70
2022/04/06 09:28:45;;;;;;;24.30;5.70;;;;;;;9.67;100.00;101757.13;5011342;28;20042;-70
2022/04/06 09:31:15;;;;;;;12.17;4.93;;;;;;;9.64;100.00;103424.66;4995966;28;20037;-70
2022/04/06 09:33:43;;;;;;;9.17;4.07;;;;;;;9.58;100.00;105420.19;5000980;28;20060;-70
2022/04/06 09:36:19;;;;;;;11.73;5.37;;;;;;;9.60;100.00;107767.06;5011148;28;20366;-70
2022/04/06 09:38:50;;;;;;;16.00;6.30;;;;;;;9.74;100.00;109802.44;5006985;28;20492;-70
2022/04/06 09:41:16;;;;;;;15.77;5.77;;;;;;;9.71;100.00;106113.38;5011857;28;20060;-70
2022/04/06 09:43:45;;;;;;;16.30;6.60;;;;;;;9.75;100.00;114164.78;5010928;28;20081;-70
2022/04/06 09:49:14;;;;;;;14.90;6.83;;;;;;;9.42;100.00;131918.97;5010338;28;20421;-70
2022/04/06 09:51:43;;;;;;;19.30;5.63;;;;;;;9.40;100.00;133264.03;5010310;28;20041;-70
2022/04/06 09:54:12;;;;;;;15.70;6.23;;;;;;;9.39;100.00;134274.56;5010364;28;20112;-70
2022/04/06 09:56:38;;;;;;;14.40;6.93;;;;;;;9.39;100.00;138323.00;5007781;28;20148;-70
2022/04/06 09:59:04;;;;;;;13.73;5.70;;;;;;;9.36;100.00;140343.50;5010914;28;20117;-70
2022/04/06 10:01:34;;;;;;;11.83;6.03;;;;;;;9.32;100.00;142699.25;5010524;28;20509;-70
2022/04/06 10:04:07;;;;;;;13.03;4.43;;;;;;;9.32;100.00;143036.06;5000365;28;20419;-70
2022/04/06 10:06:37;;;;;;;16.83;6.67;;;;;;;9.36;100.00;143045.97;4991401;28;20034;-70
2022/04/06 10:09:05;;;;;;;13.60;5.70;;;;;;;9.53;100.00;143086.75;4993810;28;20034;-70
2022/04/06 10:11:33;;;;;;;12.77;5.50;;;;;;;9.49;100.00;139698.03;5011132;28;20040;-70
2022/04/06 10:14:00;;;;;;;16.13;7.03;;;;;;;9.65;100.00;137370.69;5010374;28;20436;-70
2022/04/06 10:16:26;;;;;;;12.47;5.83;;;;;;;9.79;100.00;128969.13;5011022;28;20057;-70
2022/04/06 10:18:52;;;;;;;11.07;5.00;;;;;;;9.71;100.00;122891.53;5010258;28;20034;-70
2022/04/06 10:21:40;;;;;;;7.53;3.53;;;;;;;9.70;100.00;115497.28;5011047;28;20034;-70
2022/04/06 10:24:28;;;;;;;10.37;4.57;;;;;;;9.73;100.00;112818.91;5010228;28;20092;-70
2022/04/06 10:27:17;;;;;;;10.70;5.07;;;;;;;9.82;100.00;111159.56;5010693;28;20030;-70
2022/04/06 10:30:15;;;;;;;10.73;4.80;;;;;;;9.91;100.00;107153.97;5010165;28;20048;-70
2022/04/06 10:32:45;;;;;;;13.43;4.63;;;;;;;9.96;100.00;103146.50;5010204;28;20072;-70
2022/04/06 10:35:32;;;;;;;8.43;3.40;;;;;;;10.02;100.00;91463.41;5007604;28;20034;-70
2022/04/06 10:38:00;;;;;;;10.53;3.87;;;;;;;10.09;100.00;82146.75;5009998;28;20037;-70
2022/04/06 10:40:31;;;;;;;9.97;3.33;;;;;;;10.10;100.00;73178.63;5010702;28;20505;-70
2022/04/06 10:42:57;;;;;;;10.13;3.70;;;;;;;10.14;100.00;70198.03;5010894;28;20034;-70
2022/04/06 10:45:28;;;;;;;8.40;3.80;;;;;;;10.14;100.00;64566.69;5010818;28;20123;-70
2022/04/06 10:48:20;;;;;;;8.05;3.03;;;;;;;10.16;100.00;56304.16;5009819;28;20477;-70
2022/04/06 10:50:47;;;;;;;;;;;;;;;10.11;100.00;51350.38;5011143;28;20038;-70
2022/04/06 10:53:18;;;;;;;9.73;3.27;;;;;;;10.21;100.00;58952.47;5006207;28;19921;-70
2022/04/06 10:56:02;;;;;;;10.73;3.72;;;;;;;10.17;100.00;40492.81;4983424;28;20022;-70
2022/04/06 10:58:28;;;;;;;8.17;2.90;;;;;;;10.22;100.00;43455.91;5004313;28;20049;-70
2022/04/06 11:01:14;;;;;;;7.43;3.10;;;;;;;10.18;100.00;37537.28;4978706;28;20030;-70
2022/04/06 11:03:44;;;;;;;9.67;3.60;;;;;;;10.17;100.00;29337.22;4999500;28;20521;-70
2022/04/06 11:06:10;;;;;;;12.23;4.00;;;;;;;10.12;100.00;37204.53;4994916;28;20026;-70
2022/04/06 11:11:44;;;;;;;8.60;3.40;;;;;;;10.08;100.00;32936.91;5009488;28;20049;-70
2022/04/06 11:14:11;;;;;;;5.57;2.63;;;;;;;10.25;100.00;27376.56;5002208;28;20030;-70
2022/04/06 11:16:43;;;;;;;6.37;2.63;;;;;;;10.33;100.00;23780.38;4994745;28;20389;-70
2022/04/06 11:19:09;;;;;;;7.03;2.70;;;;;;;10.35;100.00;27708.91;4994874;28;20033;-70
2022/04/06 11:21:44;;;;;;;4.37;2.20;;;;;;;10.37;100.00;26400.41;5013749;28;20026;-70
2022/04/06 11:24:10;;;;;;;7.50;3.27;;;;;;;10.27;100.00;27705.28;5013211;28;20033;-70